sensor_id;sensor_type;location;lat;lon;timestamp;temperature;humidity
4406;DHT22;2216;53.806;11.598;2022-09-30T00:01:47;10.80;67.00
4406;DHT22;2216;53.806;11.598;2022-09-30T00:04:20;10.80;66.90
4406;DHT22;2216;53.806;11.598;2022-09-30T00:06:48;10.80;66.90
4406;DHT22;2216;53.806;11.598;2022-09-30T00:09:14;10.80;67.00
4406;DHT22;2216;53.806;11.598;2022-09-30T00:11:41;10.80;67.00
4406;DHT22;2216;53.806;11.598;2022-09-30T00:14:13;10.80;67.00
4406;DHT22;2216;53.806;11.598;2022-09-30T00:16:43;10.80;67.00
4406;DHT22;2216;53.806;11.598;2022-09-30T00:19:09;10.80;67.00
4406;DHT22;2216;53.806;11.598;2022-09-30T00:21:34;10.70;67.00
4406;DHT22;2216;53.806;11.598;2022-09-30T00:24:01;10.70;67.00
4406;DHT22;2216;53.806;11.598;2022-09-30T00:26:27;10.70;67.00
4406;DHT22;2216;53.806;11.598;2022-09-30T00:28:55;10.70;67.00
4406;DHT22;2216;53.806;11.598;2022-09-30T00:31:25;10.70;67.10
4406;DHT22;2216;53.806;11.598;2022-09-30T00:33:52;10.70;67.10
4406;DHT22;2216;53.806;11.598;2022-09-30T00:36:43;10.70;67.10
4406;DHT22;2216;53.806;11.598;2022-09-30T00:39:24;10.70;67.10
4406;DHT22;2216;53.806;11.598;2022-09-30T00:41:54;10.70;67.80
4406;DHT22;2216;53.806;11.598;2022-09-30T00:50:46;10.70;67.10
4406;DHT22;2216;53.806;11.598;2022-09-30T01:01:02;10.70;67.10
4406;DHT22;2216;53.806;11.598;2022-09-30T01:03:34;10.70;67.10
4406;DHT22;2216;53.806;11.598;2022-09-30T01:06:02;10.70;67.10
4406;DHT22;2216;53.806;11.598;2022-09-30T01:08:30;10.70;67.10
4406;DHT22;2216;53.806;11.598;2022-09-30T01:10:58;10.70;67.10
4406;DHT22;2216;53.806;11.598;2022-09-30T01:13:24;10.70;67.10
4406;DHT22;2216;53.806;11.598;2022-09-30T01:21:39;10.70;67.20
4406;DHT22;2216;53.806;11.598;2022-09-30T01:33:44;10.60;67.10
4406;DHT22;2216;53.806;11.598;2022-09-30T01:42:53;10.60;67.40
4406;DHT22;2216;53.806;11.598;2022-09-30T01:45:45;10.60;67.30
4406;DHT22;2216;53.806;11.598;2022-09-30T01:51:54;10.60;67.40
4406;DHT22;2216;53.806;11.598;2022-09-30T01:54:17;10.60;67.40
4406;DHT22;2216;53.806;11.598;2022-09-30T01:57:30;10.50;67.40
4406;DHT22;2216;53.806;11.598;2022-09-30T02:00:08;10.50;67.30
4406;DHT22;2216;53.806;11.598;2022-09-30T02:05:36;10.50;67.30
4406;DHT22;2216;53.806;11.598;2022-09-30T02:08:27;10.50;67.30
4406;DHT22;2216;53.806;11.598;2022-09-30T02:11:01;10.40;67.20
4406;DHT22;2216;53.806;11.598;2022-09-30T02:16:44;10.40;67.20
4406;DHT22;2216;53.806;11.598;2022-09-30T02:19:18;10.40;67.20
4406;DHT22;2216;53.806;11.598;2022-09-30T02:21:57;10.30;67.10
4406;DHT22;2216;53.806;11.598;2022-09-30T02:24:28;10.30;67.10
4406;DHT22;2216;53.806;11.598;2022-09-30T02:26:59;10.30;67.10
4406;DHT22;2216;53.806;11.598;2022-09-30T02:29:31;10.30;67.20
4406;DHT22;2216;53.806;11.598;2022-09-30T02:32:03;10.20;67.10
4406;DHT22;2216;53.806;11.598;2022-09-30T02:34:36;10.20;67.10
4406;DHT22;2216;53.806;11.598;2022-09-30T02:37:15;10.20;67.10
4406;DHT22;2216;53.806;11.598;2022-09-30T02:39:51;10.10;67.00
4406;DHT22;2216;53.806;11.598;2022-09-30T02:42:26;10.10;67.00
4406;DHT22;2216;53.806;11.598;2022-09-30T02:44:58;10.10;67.00
4406;DHT22;2216;53.806;11.598;2022-09-30T02:47:38;10.00;66.90
4406;DHT22;2216;53.806;11.598;2022-09-30T02:50:30;10.00;66.90
4406;DHT22;2216;53.806;11.598;2022-09-30T02:53:24;9.90;66.90
4406;DHT22;2216;53.806;11.598;2022-09-30T02:56:16;9.80;66.80
4406;DHT22;2216;53.806;11.598;2022-09-30T02:58:50;9.80;66.80
4406;DHT22;2216;53.806;11.598;2022-09-30T03:01:16;9.70;66.80
4406;DHT22;2216;53.806;11.598;2022-09-30T03:03:45;9.70;66.80
4406;DHT22;2216;53.806;11.598;2022-09-30T03:06:14;9.60;66.80
4406;DHT22;2216;53.806;11.598;2022-09-30T03:08:40;9.60;66.80
4406;DHT22;2216;53.806;11.598;2022-09-30T03:11:09;9.50;66.80
4406;DHT22;2216;53.806;11.598;2022-09-30T03:14:02;9.50;66.90
4406;DHT22;2216;53.806;11.598;2022-09-30T03:26:03;9.30;67.50
4406;DHT22;2216;53.806;11.598;2022-09-30T03:28:37;9.20;66.90
4406;DHT22;2216;53.806;11.598;2022-09-30T03:31:37;9.20;67.00
4406;DHT22;2216;53.806;11.598;2022-09-30T03:34:24;9.20;67.00
4406;DHT22;2216;53.806;11.598;2022-09-30T03:37:33;9.20;67.20
4406;DHT22;2216;53.806;11.598;2022-09-30T03:43:37;9.10;67.20
4406;DHT22;2216;53.806;11.598;2022-09-30T03:46:17;9.10;67.20
4406;DHT22;2216;53.806;11.598;2022-09-30T03:48:53;9.10;67.20
4406;DHT22;2216;53.806;11.598;2022-09-30T03:51:20;9.10;67.30
4406;DHT22;2216;53.806;11.598;2022-09-30T03:53:49;9.10;67.40
4406;DHT22;2216;53.806;11.598;2022-09-30T03:56:24;9.10;67.40
4406;DHT22;2216;53.806;11.598;2022-09-30T03:58:55;9.10;67.50
4406;DHT22;2216;53.806;11.598;2022-09-30T04:01:21;9.10;67.50
4406;DHT22;2216;53.806;11.598;2022-09-30T04:03:48;9.10;67.50
4406;DHT22;2216;53.806;11.598;2022-09-30T04:06:22;9.10;67.50
4406;DHT22;2216;53.806;11.598;2022-09-30T04:08:48;9.10;67.40
4406;DHT22;2216;53.806;11.598;2022-09-30T04:11:15;9.10;67.40
4406;DHT22;2216;53.806;11.598;2022-09-30T04:13:42;9.20;67.50
4406;DHT22;2216;53.806;11.598;2022-09-30T04:16:07;9.10;67.40
4406;DHT22;2216;53.806;11.598;2022-09-30T04:18:38;9.10;67.40
4406;DHT22;2216;53.806;11.598;2022-09-30T04:21:05;9.10;67.50
4406;DHT22;2216;53.806;11.598;2022-09-30T04:23:36;9.10;67.40
4406;DHT22;2216;53.806;11.598;2022-09-30T04:26:03;9.10;67.50
4406;DHT22;2216;53.806;11.598;2022-09-30T04:28:34;9.20;67.50
4406;DHT22;2216;53.806;11.598;2022-09-30T04:31:01;9.10;67.50
4406;DHT22;2216;53.806;11.598;2022-09-30T04:33:28;9.10;67.40
4406;DHT22;2216;53.806;11.598;2022-09-30T04:35:55;9.10;67.40
4406;DHT22;2216;53.806;11.598;2022-09-30T04:38:21;9.10;67.40
4406;DHT22;2216;53.806;11.598;2022-09-30T04:40:52;9.10;67.40
4406;DHT22;2216;53.806;11.598;2022-09-30T04:43:21;9.20;67.50
4406;DHT22;2216;53.806;11.598;2022-09-30T04:45:48;9.10;67.40
4406;DHT22;2216;53.806;11.598;2022-09-30T04:48:15;9.20;67.50
4406;DHT22;2216;53.806;11.598;2022-09-30T04:50:41;9.10;67.40
4406;DHT22;2216;53.806;11.598;2022-09-30T04:53:08;9.10;67.40
4406;DHT22;2216;53.806;11.598;2022-09-30T04:55:36;9.10;67.30
4406;DHT22;2216;53.806;11.598;2022-09-30T04:58:01;9.10;67.30
4406;DHT22;2216;53.806;11.598;2022-09-30T05:00:27;9.10;67.30
4406;DHT22;2216;53.806;11.598;2022-09-30T05:02:53;9.10;67.30
4406;DHT22;2216;53.806;11.598;2022-09-30T05:05:18;9.00;67.30
4406;DHT22;2216;53.806;11.598;2022-09-30T05:07:44;9.10;67.40
4406;DHT22;2216;53.806;11.598;2022-09-30T05:10:12;9.00;67.40
4406;DHT22;2216;53.806;11.598;2022-09-30T05:12:38;9.10;67.50
4406;DHT22;2216;53.806;11.598;2022-09-30T05:15:08;9.10;67.60
4406;DHT22;2216;53.806;11.598;2022-09-30T05:17:34;9.00;67.50
4406;DHT22;2216;53.806;11.598;2022-09-30T05:20:01;9.10;67.60
4406;DHT22;2216;53.806;11.598;2022-09-30T05:22:27;9.10;67.70
4406;DHT22;2216;53.806;11.598;2022-09-30T05:24:54;9.10;67.70
4406;DHT22;2216;53.806;11.598;2022-09-30T05:27:24;9.10;67.60
4406;DHT22;2216;53.806;11.598;2022-09-30T05:29:50;9.10;67.60
4406;DHT22;2216;53.806;11.598;2022-09-30T05:32:15;9.10;67.50
4406;DHT22;2216;53.806;11.598;2022-09-30T05:34:42;9.10;67.50
4406;DHT22;2216;53.806;11.598;2022-09-30T05:37:08;9.10;67.50
4406;DHT22;2216;53.806;11.598;2022-09-30T05:39:34;9.10;67.50
4406;DHT22;2216;53.806;11.598;2022-09-30T05:42:00;9.10;67.50
4406;DHT22;2216;53.806;11.598;2022-09-30T05:44:26;9.10;67.50
4406;DHT22;2216;53.806;11.598;2022-09-30T05:46:52;9.10;67.50
4406;DHT22;2216;53.806;11.598;2022-09-30T05:49:17;9.10;67.50
4406;DHT22;2216;53.806;11.598;2022-09-30T05:51:43;9.10;67.60
4406;DHT22;2216;53.806;11.598;2022-09-30T05:54:10;9.10;67.60
4406;DHT22;2216;53.806;11.598;2022-09-30T05:56:36;9.10;67.70
4406;DHT22;2216;53.806;11.598;2022-09-30T05:59:05;9.10;67.80
4406;DHT22;2216;53.806;11.598;2022-09-30T06:01:31;9.20;67.90
4406;DHT22;2216;53.806;11.598;2022-09-30T06:03:57;9.20;68.00
4406;DHT22;2216;53.806;11.598;2022-09-30T06:06:23;9.20;68.00
4406;DHT22;2216;53.806;11.598;2022-09-30T06:08:49;9.30;68.10
4406;DHT22;2216;53.806;11.598;2022-09-30T06:11:18;9.30;68.10
4406;DHT22;2216;53.806;11.598;2022-09-30T06:13:46;9.30;68.10
4406;DHT22;2216;53.806;11.598;2022-09-30T06:16:13;9.40;68.20
4406;DHT22;2216;53.806;11.598;2022-09-30T06:18:39;9.40;68.20
4406;DHT22;2216;53.806;11.598;2022-09-30T06:21:06;9.50;69.00
4406;DHT22;2216;53.806;11.598;2022-09-30T06:23:34;9.50;68.30
4406;DHT22;2216;53.806;11.598;2022-09-30T06:26:00;9.50;68.30
4406;DHT22;2216;53.806;11.598;2022-09-30T06:28:27;9.60;68.50
4406;DHT22;2216;53.806;11.598;2022-09-30T06:30:53;9.70;68.60
4406;DHT22;2216;53.806;11.598;2022-09-30T06:33:20;9.70;68.50
4406;DHT22;2216;53.806;11.598;2022-09-30T06:35:46;9.80;68.90
4406;DHT22;2216;53.806;11.598;2022-09-30T06:38:13;9.80;68.70
4406;DHT22;2216;53.806;11.598;2022-09-30T06:40:43;9.90;68.70
4406;DHT22;2216;53.806;11.598;2022-09-30T06:43:10;9.90;68.60
4406;DHT22;2216;53.806;11.598;2022-09-30T06:45:36;10.00;68.70
4406;DHT22;2216;53.806;11.598;2022-09-30T06:48:03;10.00;68.70
4406;DHT22;2216;53.806;11.598;2022-09-30T06:50:30;10.00;68.70
4406;DHT22;2216;53.806;11.598;2022-09-30T06:52:58;10.10;68.80
4406;DHT22;2216;53.806;11.598;2022-09-30T06:55:26;10.20;68.80
4406;DHT22;2216;53.806;11.598;2022-09-30T06:57:53;10.20;69.10
4406;DHT22;2216;53.806;11.598;2022-09-30T07:00:21;10.30;69.00
4406;DHT22;2216;53.806;11.598;2022-09-30T07:02:48;10.40;69.40
4406;DHT22;2216;53.806;11.598;2022-09-30T07:05:15;10.40;69.20
4406;DHT22;2216;53.806;11.598;2022-09-30T07:07:41;10.50;69.30
4406;DHT22;2216;53.806;11.598;2022-09-30T07:10:08;10.60;69.40
4406;DHT22;2216;53.806;11.598;2022-09-30T07:12:34;10.70;69.40
4406;DHT22;2216;53.806;11.598;2022-09-30T07:15:00;10.70;69.40
4406;DHT22;2216;53.806;11.598;2022-09-30T07:17:26;10.90;69.40
4406;DHT22;2216;53.806;11.598;2022-09-30T07:19:53;10.90;69.40
4406;DHT22;2216;53.806;11.598;2022-09-30T07:22:19;11.00;69.60
4406;DHT22;2216;53.806;11.598;2022-09-30T07:24:55;11.10;69.60
4406;DHT22;2216;53.806;11.598;2022-09-30T07:27:22;11.20;69.60
4406;DHT22;2216;53.806;11.598;2022-09-30T07:29:48;11.30;69.60
4406;DHT22;2216;53.806;11.598;2022-09-30T07:32:14;11.40;69.80
4406;DHT22;2216;53.806;11.598;2022-09-30T07:34:40;11.50;70.00
4406;DHT22;2216;53.806;11.598;2022-09-30T07:37:08;11.60;70.00
4406;DHT22;2216;53.806;11.598;2022-09-30T07:39:35;11.70;70.10
4406;DHT22;2216;53.806;11.598;2022-09-30T07:42:01;11.80;70.00
4406;DHT22;2216;53.806;11.598;2022-09-30T07:44:28;11.90;70.00
4406;DHT22;2216;53.806;11.598;2022-09-30T07:46:54;12.00;69.90
4406;DHT22;2216;53.806;11.598;2022-09-30T07:49:20;12.00;69.70
4406;DHT22;2216;53.806;11.598;2022-09-30T07:51:51;12.30;69.90
4406;DHT22;2216;53.806;11.598;2022-09-30T07:54:20;12.20;69.50
4406;DHT22;2216;53.806;11.598;2022-09-30T07:56:49;12.30;69.60
4406;DHT22;2216;53.806;11.598;2022-09-30T07:59:17;12.30;69.60
4406;DHT22;2216;53.806;11.598;2022-09-30T08:01:43;12.40;69.50
4406;DHT22;2216;53.806;11.598;2022-09-30T08:04:11;12.50;69.50
4406;DHT22;2216;53.806;11.598;2022-09-30T08:06:40;12.50;69.50
4406;DHT22;2216;53.806;11.598;2022-09-30T08:09:08;12.60;69.40
4406;DHT22;2216;53.806;11.598;2022-09-30T08:11:35;12.60;69.50
4406;DHT22;2216;53.806;11.598;2022-09-30T08:14:02;12.70;69.50
4406;DHT22;2216;53.806;11.598;2022-09-30T08:16:28;12.70;69.30
4406;DHT22;2216;53.806;11.598;2022-09-30T08:18:59;12.70;69.20
4406;DHT22;2216;53.806;11.598;2022-09-30T08:21:27;12.80;69.20
4406;DHT22;2216;53.806;11.598;2022-09-30T08:23:53;12.80;69.10
4406;DHT22;2216;53.806;11.598;2022-09-30T08:26:19;12.60;69.00
4406;DHT22;2216;53.806;11.598;2022-09-30T08:28:46;12.90;69.00
4406;DHT22;2216;53.806;11.598;2022-09-30T08:31:20;12.90;69.00
4406;DHT22;2216;53.806;11.598;2022-09-30T08:33:48;13.00;69.00
4406;DHT22;2216;53.806;11.598;2022-09-30T08:36:25;13.00;69.00
4406;DHT22;2216;53.806;11.598;2022-09-30T08:38:52;13.00;69.00
4406;DHT22;2216;53.806;11.598;2022-09-30T08:47:58;13.20;69.50
4406;DHT22;2216;53.806;11.598;2022-09-30T08:50:43;13.30;69.20
4406;DHT22;2216;53.806;11.598;2022-09-30T08:53:33;13.30;69.40
4406;DHT22;2216;53.806;11.598;2022-09-30T08:56:02;13.40;69.50
4406;DHT22;2216;53.806;11.598;2022-09-30T08:58:32;13.50;69.40
4406;DHT22;2216;53.806;11.598;2022-09-30T09:01:09;13.60;69.30
4406;DHT22;2216;53.806;11.598;2022-09-30T09:03:41;13.70;69.40
4406;DHT22;2216;53.806;11.598;2022-09-30T09:06:41;13.70;69.40
4406;DHT22;2216;53.806;11.598;2022-09-30T09:24:15;14.40;69.50
4406;DHT22;2216;53.806;11.598;2022-09-30T09:26:46;14.50;69.40
4406;DHT22;2216;53.806;11.598;2022-09-30T09:29:36;14.70;69.50
4406;DHT22;2216;53.806;11.598;2022-09-30T09:32:13;14.70;69.40
4406;DHT22;2216;53.806;11.598;2022-09-30T09:34:44;14.90;69.30
4406;DHT22;2216;53.806;11.598;2022-09-30T09:37:34;15.10;69.50
4406;DHT22;2216;53.806;11.598;2022-09-30T09:40:38;15.20;69.40
4406;DHT22;2216;53.806;11.598;2022-09-30T09:43:22;15.40;69.30
4406;DHT22;2216;53.806;11.598;2022-09-30T09:46:33;15.60;69.30
4406;DHT22;2216;53.806;11.598;2022-09-30T09:51:45;15.90;69.20
4406;DHT22;2216;53.806;11.598;2022-09-30T09:54:16;16.10;69.10
4406;DHT22;2216;53.806;11.598;2022-09-30T09:56:45;16.20;68.90
4406;DHT22;2216;53.806;11.598;2022-09-30T09:59:14;16.30;68.80
4406;DHT22;2216;53.806;11.598;2022-09-30T10:01:49;16.50;68.70
4406;DHT22;2216;53.806;11.598;2022-09-30T10:06:57;16.70;68.40
4406;DHT22;2216;53.806;11.598;2022-09-30T10:09:30;16.80;68.30
4406;DHT22;2216;53.806;11.598;2022-09-30T10:14:46;17.00;67.90
4406;DHT22;2216;53.806;11.598;2022-09-30T10:20:39;17.20;67.30
4406;DHT22;2216;53.806;11.598;2022-09-30T10:22:48;17.30;67.50
4406;DHT22;2216;53.806;11.598;2022-09-30T10:28:18;17.40;67.10
4406;DHT22;2216;53.806;11.598;2022-09-30T10:33:44;17.50;67.40
4406;DHT22;2216;53.806;11.598;2022-09-30T10:36:15;17.60;67.70
4406;DHT22;2216;53.806;11.598;2022-09-30T10:38:56;17.70;67.80
4406;DHT22;2216;53.806;11.598;2022-09-30T10:41:27;17.80;67.00
4406;DHT22;2216;53.806;11.598;2022-09-30T10:43:58;17.90;67.10
4406;DHT22;2216;53.806;11.598;2022-09-30T10:46:36;18.00;67.20
4406;DHT22;2216;53.806;11.598;2022-09-30T10:51:56;18.20;67.30
4406;DHT22;2216;53.806;11.598;2022-09-30T10:57:05;18.30;67.10
4406;DHT22;2216;53.806;11.598;2022-09-30T10:59:38;18.40;67.10
4406;DHT22;2216;53.806;11.598;2022-09-30T11:04:54;18.60;67.10
4406;DHT22;2216;53.806;11.598;2022-09-30T11:07:32;18.60;66.40
4406;DHT22;2216;53.806;11.598;2022-09-30T11:10:13;18.60;66.40
4406;DHT22;2216;53.806;11.598;2022-09-30T11:16:14;18.60;66.00
4406;DHT22;2216;53.806;11.598;2022-09-30T11:20:06;18.50;65.80
4406;DHT22;2216;53.806;11.598;2022-09-30T11:22:27;18.50;66.00
4406;DHT22;2216;53.806;11.598;2022-09-30T11:24:54;18.50;65.80
4406;DHT22;2216;53.806;11.598;2022-09-30T11:30:18;18.60;65.80
4406;DHT22;2216;53.806;11.598;2022-09-30T11:35:55;18.50;65.70
4406;DHT22;2216;53.806;11.598;2022-09-30T11:38:52;18.40;65.20
4406;DHT22;2216;53.806;11.598;2022-09-30T11:41:40;18.40;65.80
4406;DHT22;2216;53.806;11.598;2022-09-30T11:44:13;18.40;66.00
4406;DHT22;2216;53.806;11.598;2022-09-30T11:47:01;18.40;65.90
4406;DHT22;2216;53.806;11.598;2022-09-30T11:49:58;18.40;65.70
4406;DHT22;2216;53.806;11.598;2022-09-30T11:53:00;18.30;65.80
4406;DHT22;2216;53.806;11.598;2022-09-30T11:55:57;18.30;65.90
4406;DHT22;2216;53.806;11.598;2022-09-30T11:58:40;18.40;66.20
4406;DHT22;2216;53.806;11.598;2022-09-30T12:03:50;18.60;66.70
4406;DHT22;2216;53.806;11.598;2022-09-30T12:06:27;18.70;66.90
4406;DHT22;2216;53.806;11.598;2022-09-30T12:09:03;18.70;66.50
4406;DHT22;2216;53.806;11.598;2022-09-30T12:11:40;18.80;66.10
4406;DHT22;2216;53.806;11.598;2022-09-30T12:14:19;18.70;65.90
4406;DHT22;2216;53.806;11.598;2022-09-30T12:16:49;18.70;65.80
4406;DHT22;2216;53.806;11.598;2022-09-30T12:19:24;18.70;65.80
4406;DHT22;2216;53.806;11.598;2022-09-30T12:24:41;18.70;65.80
4406;DHT22;2216;53.806;11.598;2022-09-30T12:27:37;18.70;65.70
4406;DHT22;2216;53.806;11.598;2022-09-30T12:30:14;18.70;65.60
4406;DHT22;2216;53.806;11.598;2022-09-30T12:36:34;18.60;65.40
4406;DHT22;2216;53.806;11.598;2022-09-30T12:39:31;18.60;65.10
4406;DHT22;2216;53.806;11.598;2022-09-30T12:48:14;18.70;66.30
4406;DHT22;2216;53.806;11.598;2022-09-30T12:50:48;18.80;66.20
4406;DHT22;2216;53.806;11.598;2022-09-30T12:53:29;18.90;66.00
4406;DHT22;2216;53.806;11.598;2022-09-30T12:56:12;19.00;66.00
4406;DHT22;2216;53.806;11.598;2022-09-30T12:58:48;19.10;65.60
4406;DHT22;2216;53.806;11.598;2022-09-30T13:01:17;19.10;65.30
4406;DHT22;2216;53.806;11.598;2022-09-30T13:06:29;19.00;65.00
4406;DHT22;2216;53.806;11.598;2022-09-30T13:11:41;18.90;64.90
4406;DHT22;2216;53.806;11.598;2022-09-30T13:14:31;18.90;65.10
4406;DHT22;2216;53.806;11.598;2022-09-30T13:19:48;18.90;64.80
4406;DHT22;2216;53.806;11.598;2022-09-30T13:27:39;18.80;64.30
4406;DHT22;2216;53.806;11.598;2022-09-30T13:35:35;18.50;63.80
4406;DHT22;2216;53.806;11.598;2022-09-30T13:43:38;18.40;64.60
4406;DHT22;2216;53.806;11.598;2022-09-30T13:46:35;18.40;65.00
4406;DHT22;2216;53.806;11.598;2022-09-30T13:49:42;18.40;64.90
4406;DHT22;2216;53.806;11.598;2022-09-30T13:52:23;18.50;65.00
4406;DHT22;2216;53.806;11.598;2022-09-30T13:54:51;18.50;64.90
4406;DHT22;2216;53.806;11.598;2022-09-30T13:57:25;18.50;65.00
4406;DHT22;2216;53.806;11.598;2022-09-30T14:00:05;18.50;65.00
4406;DHT22;2216;53.806;11.598;2022-09-30T14:02:47;18.60;65.10
4406;DHT22;2216;53.806;11.598;2022-09-30T14:05:32;18.60;65.10
4406;DHT22;2216;53.806;11.598;2022-09-30T14:11:01;18.60;64.90
4406;DHT22;2216;53.806;11.598;2022-09-30T14:22:51;18.60;64.80
4406;DHT22;2216;53.806;11.598;2022-09-30T14:25:19;18.60;64.20
4406;DHT22;2216;53.806;11.598;2022-09-30T14:28:05;18.60;64.30
4406;DHT22;2216;53.806;11.598;2022-09-30T14:30:40;18.60;64.00
4406;DHT22;2216;53.806;11.598;2022-09-30T14:33:27;18.60;63.90
4406;DHT22;2216;53.806;11.598;2022-09-30T14:35:59;18.50;64.30
4406;DHT22;2216;53.806;11.598;2022-09-30T14:38:28;18.50;64.30
4406;DHT22;2216;53.806;11.598;2022-09-30T14:40:58;18.50;64.10
4406;DHT22;2216;53.806;11.598;2022-09-30T14:43:31;18.40;64.00
4406;DHT22;2216;53.806;11.598;2022-09-30T14:46:05;18.40;64.10
4406;DHT22;2216;53.806;11.598;2022-09-30T14:48:35;18.40;64.30
4406;DHT22;2216;53.806;11.598;2022-09-30T14:51:08;18.30;64.30
4406;DHT22;2216;53.806;11.598;2022-09-30T14:53:39;18.40;64.40
4406;DHT22;2216;53.806;11.598;2022-09-30T14:56:29;18.30;64.30
4406;DHT22;2216;53.806;11.598;2022-09-30T14:58:57;18.30;64.70
4406;DHT22;2216;53.806;11.598;2022-09-30T15:01:28;18.30;64.20
4406;DHT22;2216;53.806;11.598;2022-09-30T15:06:29;18.20;64.10
4406;DHT22;2216;53.806;11.598;2022-09-30T15:09:05;18.20;63.60
4406;DHT22;2216;53.806;11.598;2022-09-30T15:11:33;18.10;63.70
4406;DHT22;2216;53.806;11.598;2022-09-30T15:14:19;18.10;64.00
4406;DHT22;2216;53.806;11.598;2022-09-30T15:19:24;17.90;64.00
4406;DHT22;2216;53.806;11.598;2022-09-30T15:21:52;17.90;63.70
4406;DHT22;2216;53.806;11.598;2022-09-30T15:24:21;17.90;63.50
4406;DHT22;2216;53.806;11.598;2022-09-30T15:26:50;17.80;63.60
4406;DHT22;2216;53.806;11.598;2022-09-30T15:29:16;17.70;63.70
4406;DHT22;2216;53.806;11.598;2022-09-30T15:31:49;17.70;63.60
4406;DHT22;2216;53.806;11.598;2022-09-30T15:34:29;17.60;63.80
4406;DHT22;2216;53.806;11.598;2022-09-30T15:37:02;17.60;63.90
4406;DHT22;2216;53.806;11.598;2022-09-30T15:39:33;17.50;63.70
4406;DHT22;2216;53.806;11.598;2022-09-30T15:42:37;17.50;63.50
4406;DHT22;2216;53.806;11.598;2022-09-30T15:45:33;17.40;63.20
4406;DHT22;2216;53.806;11.598;2022-09-30T15:48:06;17.30;63.50
4406;DHT22;2216;53.806;11.598;2022-09-30T15:50:58;17.20;63.50
4406;DHT22;2216;53.806;11.598;2022-09-30T15:56:28;17.10;63.60
4406;DHT22;2216;53.806;11.598;2022-09-30T15:59:04;17.00;63.60
4406;DHT22;2216;53.806;11.598;2022-09-30T16:01:38;16.90;63.30
4406;DHT22;2216;53.806;11.598;2022-09-30T16:06:52;16.70;63.70
4406;DHT22;2216;53.806;11.598;2022-09-30T16:09:31;16.70;63.60
4406;DHT22;2216;53.806;11.598;2022-09-30T16:12:14;16.60;63.60
4406;DHT22;2216;53.806;11.598;2022-09-30T16:14:50;16.50;63.70
4406;DHT22;2216;53.806;11.598;2022-09-30T16:17:20;16.50;63.70
4406;DHT22;2216;53.806;11.598;2022-09-30T16:19:59;16.40;63.80
4406;DHT22;2216;53.806;11.598;2022-09-30T16:25:16;16.20;63.80
4406;DHT22;2216;53.806;11.598;2022-09-30T16:27:42;16.20;63.80
4406;DHT22;2216;53.806;11.598;2022-09-30T16:30:12;16.10;63.80
4406;DHT22;2216;53.806;11.598;2022-09-30T16:32:40;16.00;63.80
4406;DHT22;2216;53.806;11.598;2022-09-30T16:35:21;15.90;63.60
4406;DHT22;2216;53.806;11.598;2022-09-30T16:37:48;15.90;63.70
4406;DHT22;2216;53.806;11.598;2022-09-30T16:40:24;15.80;63.70
4406;DHT22;2216;53.806;11.598;2022-09-30T16:42:52;15.70;63.60
4406;DHT22;2216;53.806;11.598;2022-09-30T16:45:23;15.60;63.60
4406;DHT22;2216;53.806;11.598;2022-09-30T16:47:50;15.50;63.70
4406;DHT22;2216;53.806;11.598;2022-09-30T16:53:04;15.30;63.60
4406;DHT22;2216;53.806;11.598;2022-09-30T16:55:30;15.20;63.70
4406;DHT22;2216;53.806;11.598;2022-09-30T16:57:57;15.20;63.70
4406;DHT22;2216;53.806;11.598;2022-09-30T17:00:24;15.10;63.70
4406;DHT22;2216;53.806;11.598;2022-09-30T17:02:51;15.00;63.70
4406;DHT22;2216;53.806;11.598;2022-09-30T17:05:19;14.90;63.60
4406;DHT22;2216;53.806;11.598;2022-09-30T17:07:51;14.80;63.70
4406;DHT22;2216;53.806;11.598;2022-09-30T17:10:30;14.70;63.70
4406;DHT22;2216;53.806;11.598;2022-09-30T17:12:58;14.60;64.40
4406;DHT22;2216;53.806;11.598;2022-09-30T17:15:25;14.50;63.70
4406;DHT22;2216;53.806;11.598;2022-09-30T17:17:52;14.50;63.80
4406;DHT22;2216;53.806;11.598;2022-09-30T17:20:19;14.40;63.90
4406;DHT22;2216;53.806;11.598;2022-09-30T17:22:45;14.30;63.90
4406;DHT22;2216;53.806;11.598;2022-09-30T17:25:11;14.20;63.90
4406;DHT22;2216;53.806;11.598;2022-09-30T17:27:37;14.20;63.90
4406;DHT22;2216;53.806;11.598;2022-09-30T17:30:04;14.10;63.80
4406;DHT22;2216;53.806;11.598;2022-09-30T17:32:31;14.00;63.80
4406;DHT22;2216;53.806;11.598;2022-09-30T17:34:57;13.90;63.90
4406;DHT22;2216;53.806;11.598;2022-09-30T17:37:22;13.90;63.90
4406;DHT22;2216;53.806;11.598;2022-09-30T17:39:48;13.80;63.90
4406;DHT22;2216;53.806;11.598;2022-09-30T17:42:14;13.80;64.30
4406;DHT22;2216;53.806;11.598;2022-09-30T17:44:59;13.70;64.00
4406;DHT22;2216;53.806;11.598;2022-09-30T17:47:25;13.60;64.00
4406;DHT22;2216;53.806;11.598;2022-09-30T17:49:51;13.60;64.00
4406;DHT22;2216;53.806;11.598;2022-09-30T17:52:18;13.50;64.00
4406;DHT22;2216;53.806;11.598;2022-09-30T17:54:44;13.40;64.00
4406;DHT22;2216;53.806;11.598;2022-09-30T17:57:10;13.30;63.90
4406;DHT22;2216;53.806;11.598;2022-09-30T17:59:36;13.30;64.00
4406;DHT22;2216;53.806;11.598;2022-09-30T18:02:02;13.20;64.00
4406;DHT22;2216;53.806;11.598;2022-09-30T18:04:27;13.20;64.00
4406;DHT22;2216;53.806;11.598;2022-09-30T18:06:54;13.10;64.00
4406;DHT22;2216;53.806;11.598;2022-09-30T18:09:21;13.00;64.00
4406;DHT22;2216;53.806;11.598;2022-09-30T18:11:47;13.00;64.00
4406;DHT22;2216;53.806;11.598;2022-09-30T18:14:13;12.90;64.00
4406;DHT22;2216;53.806;11.598;2022-09-30T18:16:40;12.90;64.00
4406;DHT22;2216;53.806;11.598;2022-09-30T18:19:07;12.80;64.00
4406;DHT22;2216;53.806;11.598;2022-09-30T18:21:34;12.70;64.00
4406;DHT22;2216;53.806;11.598;2022-09-30T18:24:01;12.70;64.00
4406;DHT22;2216;53.806;11.598;2022-09-30T18:26:28;12.60;64.00
4406;DHT22;2216;53.806;11.598;2022-09-30T18:28:55;12.60;64.10
4406;DHT22;2216;53.806;11.598;2022-09-30T18:31:25;12.60;64.20
4406;DHT22;2216;53.806;11.598;2022-09-30T18:33:56;12.50;64.20
4406;DHT22;2216;53.806;11.598;2022-09-30T18:36:23;12.40;64.10
4406;DHT22;2216;53.806;11.598;2022-09-30T18:38:51;12.40;64.20
4406;DHT22;2216;53.806;11.598;2022-09-30T18:41:17;12.40;64.20
4406;DHT22;2216;53.806;11.598;2022-09-30T18:43:43;12.30;64.20
4406;DHT22;2216;53.806;11.598;2022-09-30T18:46:11;12.30;64.20
4406;DHT22;2216;53.806;11.598;2022-09-30T18:48:38;12.20;64.20
4406;DHT22;2216;53.806;11.598;2022-09-30T18:51:05;12.20;64.20
4406;DHT22;2216;53.806;11.598;2022-09-30T18:53:32;12.10;64.20
4406;DHT22;2216;53.806;11.598;2022-09-30T18:55:59;12.10;64.20
4406;DHT22;2216;53.806;11.598;2022-09-30T18:58:26;12.00;64.20
4406;DHT22;2216;53.806;11.598;2022-09-30T19:00:54;12.00;64.30
4406;DHT22;2216;53.806;11.598;2022-09-30T19:03:20;12.00;64.30
4406;DHT22;2216;53.806;11.598;2022-09-30T19:05:46;11.90;64.20
4406;DHT22;2216;53.806;11.598;2022-09-30T19:08:12;11.90;64.20
4406;DHT22;2216;53.806;11.598;2022-09-30T19:10:39;11.80;64.20
4406;DHT22;2216;53.806;11.598;2022-09-30T19:13:06;11.80;64.30
4406;DHT22;2216;53.806;11.598;2022-09-30T19:15:33;11.80;64.30
4406;DHT22;2216;53.806;11.598;2022-09-30T19:18:01;11.70;64.30
4406;DHT22;2216;53.806;11.598;2022-09-30T19:20:27;11.70;64.30
4406;DHT22;2216;53.806;11.598;2022-09-30T19:22:53;11.60;64.30
4406;DHT22;2216;53.806;11.598;2022-09-30T19:25:18;11.60;64.30